sensor_id;sensor_type;location;lat;lon;timestamp;P1;durP1;ratioP1;P2;durP2;ratioP2
77821;SDS011;67012;53.712;10.728;2023-08-24T05:30:33;8.77;;;5.65;;
77821;SDS011;67012;53.712;10.728;2023-08-24T05:32:58;6.50;;;3.73;;
77821;SDS011;67012;53.712;10.728;2023-08-24T05:35:24;6.93;;;4.67;;
77821;SDS011;67012;53.712;10.728;2023-08-24T05:37:51;5.43;;;3.72;;
77821;SDS011;67012;53.712;10.728;2023-08-24T05:40:17;6.93;;;4.40;;
77821;SDS011;67012;53.712;10.728;2023-08-24T05:42:42;6.47;;;4.30;;
77821;SDS011;67012;53.712;10.728;2023-08-24T05:45:07;5.23;;;4.13;;
77821;SDS011;67012;53.712;10.728;2023-08-24T05:47:32;6.07;;;2.72;;
77821;SDS011;67012;53.712;10.728;2023-08-24T05:49:58;5.30;;;3.33;;
77821;SDS011;67012;53.712;10.728;2023-08-24T05:52:23;3.57;;;3.13;;
77821;SDS011;67012;53.712;10.728;2023-08-24T05:54:48;7.88;;;3.50;;
77821;SDS011;67012;53.712;10.728;2023-08-24T05:57:13;3.33;;;2.70;;
77821;SDS011;67012;53.712;10.728;2023-08-24T05:59:39;3.93;;;2.77;;
77821;SDS011;67012;53.712;10.728;2023-08-24T06:02:04;4.90;;;2.77;;
77821;SDS011;67012;53.712;10.728;2023-08-24T06:04:29;4.37;;;2.93;;
77821;SDS011;67012;53.712;10.728;2023-08-24T06:06:55;3.45;;;2.75;;
77821;SDS011;67012;53.712;10.728;2023-08-24T06:09:20;7.17;;;2.83;;
77821;SDS011;67012;53.712;10.728;2023-08-24T06:11:46;4.22;;;2.33;;
77821;SDS011;67012;53.712;10.728;2023-08-24T06:14:11;4.50;;;2.50;;
77821;SDS011;67012;53.712;10.728;2023-08-24T06:16:36;3.57;;;2.67;;
77821;SDS011;67012;53.712;10.728;2023-08-24T06:19:01;4.73;;;3.10;;
77821;SDS011;67012;53.712;10.728;2023-08-24T06:21:28;3.83;;;2.75;;
77821;SDS011;67012;53.712;10.728;2023-08-24T06:23:53;4.40;;;2.63;;
77821;SDS011;67012;53.712;10.728;2023-08-24T06:26:18;4.43;;;3.33;;
77821;SDS011;67012;53.712;10.728;2023-08-24T06:28:44;4.13;;;3.40;;
77821;SDS011;67012;53.712;10.728;2023-08-24T06:31:09;3.13;;;2.43;;
77821;SDS011;67012;53.712;10.728;2023-08-24T06:33:34;2.53;;;2.33;;
77821;SDS011;67012;53.712;10.728;2023-08-24T06:35:59;3.03;;;2.05;;
77821;SDS011;67012;53.712;10.728;2023-08-24T06:38:25;2.10;;;1.70;;
77821;SDS011;67012;53.712;10.728;2023-08-24T06:40:50;3.88;;;2.30;;
77821;SDS011;67012;53.712;10.728;2023-08-24T06:43:15;5.43;;;2.10;;
77821;SDS011;67012;53.712;10.728;2023-08-24T06:45:41;4.63;;;1.90;;
77821;SDS011;67012;53.712;10.728;2023-08-24T06:48:06;2.25;;;1.95;;
77821;SDS011;67012;53.712;10.728;2023-08-24T06:50:32;2.55;;;1.42;;
77821;SDS011;67012;53.712;10.728;2023-08-24T06:52:57;3.13;;;1.52;;
77821;SDS011;67012;53.712;10.728;2023-08-24T06:55:22;2.70;;;1.87;;
77821;SDS011;67012;53.712;10.728;2023-08-24T06:57:48;2.53;;;1.70;;
77821;SDS011;67012;53.712;10.728;2023-08-24T07:00:13;3.42;;;1.70;;
77821;SDS011;67012;53.712;10.728;2023-08-24T07:02:40;3.10;;;2.40;;
77821;SDS011;67012;53.712;10.728;2023-08-24T07:05:05;3.13;;;2.47;;
77821;SDS011;67012;53.712;10.728;2023-08-24T07:07:30;2.67;;;2.42;;
77821;SDS011;67012;53.712;10.728;2023-08-24T07:09:56;2.63;;;1.97;;
77821;SDS011;67012;53.712;10.728;2023-08-24T07:12:21;4.13;;;1.90;;
77821;SDS011;67012;53.712;10.728;2023-08-24T07:14:46;3.73;;;1.73;;
77821;SDS011;67012;53.712;10.728;2023-08-24T07:17:11;2.07;;;1.73;;
77821;SDS011;67012;53.712;10.728;2023-08-24T07:19:36;2.20;;;1.97;;
77821;SDS011;67012;53.712;10.728;2023-08-24T07:22:02;3.58;;;1.70;;
77821;SDS011;67012;53.712;10.728;2023-08-24T07:24:27;2.97;;;1.50;;
77821;SDS011;67012;53.712;10.728;2023-08-24T07:26:53;3.45;;;1.90;;
77821;SDS011;67012;53.712;10.728;2023-08-24T07:29:19;2.28;;;1.40;;
77821;SDS011;67012;53.712;10.728;2023-08-24T07:31:45;1.40;;;1.30;;
77821;SDS011;67012;53.712;10.728;2023-08-24T07:34:10;3.13;;;1.40;;
77821;SDS011;67012;53.712;10.728;2023-08-24T07:36:35;1.33;;;0.80;;
77821;SDS011;67012;53.712;10.728;2023-08-24T07:39:00;2.43;;;1.10;;
77821;SDS011;67012;53.712;10.728;2023-08-24T07:41:25;1.10;;;0.80;;
77821;SDS011;67012;53.712;10.728;2023-08-24T07:43:51;1.80;;;1.17;;
77821;SDS011;67012;53.712;10.728;2023-08-24T07:46:16;5.43;;;1.10;;
77821;SDS011;67012;53.712;10.728;2023-08-24T07:48:41;0.77;;;0.77;;
77821;SDS011;67012;53.712;10.728;2023-08-24T07:51:07;1.93;;;1.20;;
77821;SDS011;67012;53.712;10.728;2023-08-24T07:53:32;3.50;;;1.10;;
77821;SDS011;67012;53.712;10.728;2023-08-24T07:55:58;3.35;;;0.93;;
77821;SDS011;67012;53.712;10.728;2023-08-24T07:58:23;2.15;;;0.80;;
77821;SDS011;67012;53.712;10.728;2023-08-24T08:00:49;1.95;;;1.00;;
77821;SDS011;67012;53.712;10.728;2023-08-24T08:03:14;0.98;;;0.90;;
77821;SDS011;67012;53.712;10.728;2023-08-24T08:05:39;1.73;;;0.60;;
77821;SDS011;67012;53.712;10.728;2023-08-24T08:08:05;1.42;;;0.77;;
77821;SDS011;67012;53.712;10.728;2023-08-24T08:10:30;2.97;;;0.95;;
77821;SDS011;67012;53.712;10.728;2023-08-24T08:12:55;1.50;;;0.80;;
77821;SDS011;67012;53.712;10.728;2023-08-24T08:15:20;3.30;;;0.73;;
77821;SDS011;67012;53.712;10.728;2023-08-24T08:17:45;0.88;;;0.82;;
77821;SDS011;67012;53.712;10.728;2023-08-24T08:20:13;0.80;;;0.80;;
77821;SDS011;67012;53.712;10.728;2023-08-24T08:22:38;0.73;;;0.60;;
77821;SDS011;67012;53.712;10.728;2023-08-24T08:25:04;1.80;;;0.77;;
77821;SDS011;67012;53.712;10.728;2023-08-24T08:27:30;1.63;;;1.00;;
77821;SDS011;67012;53.712;10.728;2023-08-24T08:29:55;0.70;;;0.60;;
77821;SDS011;67012;53.712;10.728;2023-08-24T08:32:20;1.13;;;0.60;;
77821;SDS011;67012;53.712;10.728;2023-08-24T08:34:45;1.30;;;0.90;;
77821;SDS011;67012;53.712;10.728;2023-08-24T08:37:11;0.83;;;0.80;;
77821;SDS011;67012;53.712;10.728;2023-08-24T08:39:36;1.17;;;0.90;;
77821;SDS011;67012;53.712;10.728;2023-08-24T08:42:01;1.23;;;0.60;;
77821;SDS011;67012;53.712;10.728;2023-08-24T08:44:29;2.15;;;0.90;;
77821;SDS011;67012;53.712;10.728;2023-08-24T08:46:54;2.22;;;0.88;;
77821;SDS011;67012;53.712;10.728;2023-08-24T08:49:20;1.95;;;0.88;;
77821;SDS011;67012;53.712;10.728;2023-08-24T08:51:45;2.50;;;0.90;;
77821;SDS011;67012;53.712;10.728;2023-08-24T08:54:11;1.70;;;0.90;;
77821;SDS011;67012;53.712;10.728;2023-08-24T08:56:36;1.07;;;0.80;;
77821;SDS011;67012;53.712;10.728;2023-08-24T08:59:01;1.50;;;0.60;;
77821;SDS011;67012;53.712;10.728;2023-08-24T09:01:27;2.50;;;0.70;;
77821;SDS011;67012;53.712;10.728;2023-08-24T09:03:52;1.33;;;0.90;;
77821;SDS011;67012;53.712;10.728;2023-08-24T09:06:18;1.45;;;0.93;;
77821;SDS011;67012;53.712;10.728;2023-08-24T09:08:43;2.30;;;1.07;;
77821;SDS011;67012;53.712;10.728;2023-08-24T09:11:09;2.07;;;0.87;;
77821;SDS011;67012;53.712;10.728;2023-08-24T09:13:34;3.20;;;1.10;;
77821;SDS011;67012;53.712;10.728;2023-08-24T09:16:06;3.43;;;0.70;;
77821;SDS011;67012;53.712;10.728;2023-08-24T09:18:38;0.70;;;0.68;;
77821;SDS011;67012;53.712;10.728;2023-08-24T09:21:11;2.53;;;0.80;;
77821;SDS011;67012;53.712;10.728;2023-08-24T09:23:37;1.00;;;0.93;;
77821;SDS011;67012;53.712;10.728;2023-08-24T09:26:03;3.20;;;1.30;;
77821;SDS011;67012;53.712;10.728;2023-08-24T09:28:29;1.23;;;1.10;;
77821;SDS011;67012;53.712;10.728;2023-08-24T09:30:55;3.45;;;1.40;;
77821;SDS011;67012;53.712;10.728;2023-08-24T09:33:20;1.17;;;1.08;;
77821;SDS011;67012;53.712;10.728;2023-08-24T09:35:54;1.63;;;1.00;;
77821;SDS011;67012;53.712;10.728;2023-08-24T09:38:21;2.60;;;0.90;;
77821;SDS011;67012;53.712;10.728;2023-08-24T09:40:47;1.15;;;0.90;;
77821;SDS011;67012;53.712;10.728;2023-08-24T09:43:16;3.33;;;1.00;;
77821;SDS011;67012;53.712;10.728;2023-08-24T09:45:51;2.42;;;1.20;;
77821;SDS011;67012;53.712;10.728;2023-08-24T09:48:16;1.40;;;0.88;;
77821;SDS011;67012;53.712;10.728;2023-08-24T09:50:44;3.60;;;1.10;;
77821;SDS011;67012;53.712;10.728;2023-08-24T09:53:13;3.35;;;1.10;;
77821;SDS011;67012;53.712;10.728;2023-08-24T09:55:40;3.30;;;0.77;;
77821;SDS011;67012;53.712;10.728;2023-08-24T09:58:06;2.08;;;1.00;;
77821;SDS011;67012;53.712;10.728;2023-08-24T10:00:34;6.28;;;1.23;;
77821;SDS011;67012;53.712;10.728;2023-08-24T10:03:00;2.67;;;1.30;;
77821;SDS011;67012;53.712;10.728;2023-08-24T10:05:26;2.42;;;1.20;;
77821;SDS011;67012;53.712;10.728;2023-08-24T10:07:53;2.92;;;1.45;;
77821;SDS011;67012;53.712;10.728;2023-08-24T10:10:21;1.08;;;0.90;;
77821;SDS011;67012;53.712;10.728;2023-08-24T10:12:47;2.90;;;1.00;;
77821;SDS011;67012;53.712;10.728;2023-08-24T10:15:15;8.45;;;4.20;;
77821;SDS011;67012;53.712;10.728;2023-08-24T10:17:40;3.53;;;1.73;;
77821;SDS011;67012;53.712;10.728;2023-08-24T10:20:06;10.50;;;3.30;;
77821;SDS011;67012;53.712;10.728;2023-08-24T10:22:34;2.38;;;1.30;;
77821;SDS011;67012;53.712;10.728;2023-08-24T10:25:00;6.00;;;2.00;;
77821;SDS011;67012;53.712;10.728;2023-08-24T10:27:26;2.83;;;2.10;;
77821;SDS011;67012;53.712;10.728;2023-08-24T10:29:52;3.00;;;1.80;;
77821;SDS011;67012;53.712;10.728;2023-08-24T10:32:17;4.25;;;1.00;;
77821;SDS011;67012;53.712;10.728;2023-08-24T10:34:43;4.82;;;1.65;;
77821;SDS011;67012;53.712;10.728;2023-08-24T10:37:08;4.10;;;1.40;;
77821;SDS011;67012;53.712;10.728;2023-08-24T10:39:35;3.38;;;1.75;;
77821;SDS011;67012;53.712;10.728;2023-08-24T10:42:03;1.80;;;1.10;;
77821;SDS011;67012;53.712;10.728;2023-08-24T10:44:33;1.65;;;1.20;;
77821;SDS011;67012;53.712;10.728;2023-08-24T10:47:17;2.28;;;1.33;;
77821;SDS011;67012;53.712;10.728;2023-08-24T10:49:43;2.45;;;1.23;;
77821;SDS011;67012;53.712;10.728;2023-08-24T10:54:47;4.88;;;1.45;;
77821;SDS011;67012;53.712;10.728;2023-08-24T11:02:30;5.20;;;1.50;;
77821;SDS011;67012;53.712;10.728;2023-08-24T11:05:05;3.88;;;1.40;;
77821;SDS011;67012;53.712;10.728;2023-08-24T11:07:31;3.58;;;1.70;;
77821;SDS011;67012;53.712;10.728;2023-08-24T11:09:56;2.83;;;1.50;;
77821;SDS011;67012;53.712;10.728;2023-08-24T11:12:21;1.53;;;1.30;;
77821;SDS011;67012;53.712;10.728;2023-08-24T11:14:50;3.97;;;1.30;;
77821;SDS011;67012;53.712;10.728;2023-08-24T11:17:24;3.97;;;1.85;;
77821;SDS011;67012;53.712;10.728;2023-08-24T11:19:49;1.77;;;1.10;;
77821;SDS011;67012;53.712;10.728;2023-08-24T11:22:16;2.42;;;1.40;;
77821;SDS011;67012;53.712;10.728;2023-08-24T11:24:41;4.13;;;1.40;;
77821;SDS011;67012;53.712;10.728;2023-08-24T11:27:07;3.22;;;1.73;;
77821;SDS011;67012;53.712;10.728;2023-08-24T11:29:33;3.47;;;1.23;;
77821;SDS011;67012;53.712;10.728;2023-08-24T11:31:58;3.58;;;1.70;;
77821;SDS011;67012;53.712;10.728;2023-08-24T11:34:24;2.05;;;1.25;;
77821;SDS011;67012;53.712;10.728;2023-08-24T11:36:49;3.13;;;1.17;;
77821;SDS011;67012;53.712;10.728;2023-08-24T11:39:19;3.37;;;1.73;;
77821;SDS011;67012;53.712;10.728;2023-08-24T11:42:06;1.75;;;1.45;;
77821;SDS011;67012;53.712;10.728;2023-08-24T11:44:44;3.38;;;1.27;;
77821;SDS011;67012;53.712;10.728;2023-08-24T11:49:35;3.25;;;1.30;;
77821;SDS011;67012;53.712;10.728;2023-08-24T11:52:00;2.80;;;1.40;;
77821;SDS011;67012;53.712;10.728;2023-08-24T11:54:25;1.43;;;1.33;;
77821;SDS011;67012;53.712;10.728;2023-08-24T11:56:50;3.30;;;1.40;;
77821;SDS011;67012;53.712;10.728;2023-08-24T11:59:16;2.30;;;1.27;;
77821;SDS011;67012;53.712;10.728;2023-08-24T12:01:41;4.97;;;1.70;;
77821;SDS011;67012;53.712;10.728;2023-08-24T12:04:07;3.67;;;1.48;;
77821;SDS011;67012;53.712;10.728;2023-08-24T12:06:32;2.27;;;1.40;;
77821;SDS011;67012;53.712;10.728;2023-08-24T12:08:58;3.55;;;1.40;;
77821;SDS011;67012;53.712;10.728;2023-08-24T12:11:23;4.27;;;1.60;;
77821;SDS011;67012;53.712;10.728;2023-08-24T12:13:50;1.88;;;1.17;;
77821;SDS011;67012;53.712;10.728;2023-08-24T12:16:16;2.78;;;1.52;;
77821;SDS011;67012;53.712;10.728;2023-08-24T12:18:51;1.60;;;1.50;;
77821;SDS011;67012;53.712;10.728;2023-08-24T12:21:17;3.42;;;1.58;;
77821;SDS011;67012;53.712;10.728;2023-08-24T12:23:44;2.45;;;1.60;;
77821;SDS011;67012;53.712;10.728;2023-08-24T12:26:16;2.07;;;1.43;;
77821;SDS011;67012;53.712;10.728;2023-08-24T12:28:42;3.25;;;1.50;;
77821;SDS011;67012;53.712;10.728;2023-08-24T12:31:07;3.90;;;1.43;;
77821;SDS011;67012;53.712;10.728;2023-08-24T12:33:32;4.87;;;1.50;;
77821;SDS011;67012;53.712;10.728;2023-08-24T12:35:57;3.63;;;1.67;;
77821;SDS011;67012;53.712;10.728;2023-08-24T12:38:26;2.25;;;1.52;;
77821;SDS011;67012;53.712;10.728;2023-08-24T12:40:52;2.03;;;1.48;;
77821;SDS011;67012;53.712;10.728;2023-08-24T12:43:17;3.10;;;1.70;;
77821;SDS011;67012;53.712;10.728;2023-08-24T12:45:42;6.05;;;1.88;;
77821;SDS011;67012;53.712;10.728;2023-08-24T12:48:07;2.88;;;1.73;;
77821;SDS011;67012;53.712;10.728;2023-08-24T12:50:37;2.33;;;1.40;;
77821;SDS011;67012;53.712;10.728;2023-08-24T12:53:02;1.50;;;1.40;;
77821;SDS011;67012;53.712;10.728;2023-08-24T12:55:28;3.60;;;1.50;;
77821;SDS011;67012;53.712;10.728;2023-08-24T12:57:53;2.65;;;1.60;;
77821;SDS011;67012;53.712;10.728;2023-08-24T13:00:18;5.57;;;1.83;;
77821;SDS011;67012;53.712;10.728;2023-08-24T13:02:44;4.85;;;1.60;;
77821;SDS011;67012;53.712;10.728;2023-08-24T13:05:09;3.27;;;1.83;;
77821;SDS011;67012;53.712;10.728;2023-08-24T13:07:34;5.00;;;2.17;;
77821;SDS011;67012;53.712;10.728;2023-08-24T13:09:59;5.03;;;1.60;;
77821;SDS011;67012;53.712;10.728;2023-08-24T13:12:24;4.27;;;1.70;;
77821;SDS011;67012;53.712;10.728;2023-08-24T13:14:50;8.02;;;2.17;;
77821;SDS011;67012;53.712;10.728;2023-08-24T13:17:15;1.60;;;1.50;;
77821;SDS011;67012;53.712;10.728;2023-08-24T13:19:40;4.87;;;1.70;;
77821;SDS011;67012;53.712;10.728;2023-08-24T13:22:05;2.30;;;1.80;;
77821;SDS011;67012;53.712;10.728;2023-08-24T13:24:32;7.03;;;2.08;;
77821;SDS011;67012;53.712;10.728;2023-08-24T13:26:57;5.27;;;2.00;;
77821;SDS011;67012;53.712;10.728;2023-08-24T13:29:22;2.20;;;1.90;;
77821;SDS011;67012;53.712;10.728;2023-08-24T13:31:48;2.43;;;1.70;;
77821;SDS011;67012;53.712;10.728;2023-08-24T13:34:13;2.87;;;1.80;;
77821;SDS011;67012;53.712;10.728;2023-08-24T13:36:38;2.83;;;1.70;;
77821;SDS011;67012;53.712;10.728;2023-08-24T13:39:03;2.47;;;1.80;;
77821;SDS011;67012;53.712;10.728;2023-08-24T13:41:29;3.90;;;2.20;;
77821;SDS011;67012;53.712;10.728;2023-08-24T13:43:55;4.20;;;1.98;;
77821;SDS011;67012;53.712;10.728;2023-08-24T13:46:20;3.30;;;1.90;;
77821;SDS011;67012;53.712;10.728;2023-08-24T13:48:45;4.33;;;2.10;;
77821;SDS011;67012;53.712;10.728;2023-08-24T13:51:10;1.87;;;1.70;;
77821;SDS011;67012;53.712;10.728;2023-08-24T13:53:37;3.03;;;2.10;;
77821;SDS011;67012;53.712;10.728;2023-08-24T13:56:02;2.17;;;1.80;;
77821;SDS011;67012;53.712;10.728;2023-08-24T13:58:27;4.30;;;2.57;;
77821;SDS011;67012;53.712;10.728;2023-08-24T14:00:56;2.00;;;1.77;;
77821;SDS011;67012;53.712;10.728;2023-08-24T14:03:21;4.30;;;2.17;;
77821;SDS011;67012;53.712;10.728;2023-08-24T14:05:47;2.87;;;1.70;;
77821;SDS011;67012;53.712;10.728;2023-08-24T14:08:14;2.58;;;1.90;;
77821;SDS011;67012;53.712;10.728;2023-08-24T14:10:39;3.23;;;1.90;;
77821;SDS011;67012;53.712;10.728;2023-08-24T14:13:05;3.33;;;2.30;;
77821;SDS011;67012;53.712;10.728;2023-08-24T14:15:30;2.00;;;1.80;;
77821;SDS011;67012;53.712;10.728;2023-08-24T14:17:55;3.40;;;1.80;;
77821;SDS011;67012;53.712;10.728;2023-08-24T14:20:20;5.37;;;1.97;;
77821;SDS011;67012;53.712;10.728;2023-08-24T14:22:45;3.27;;;2.00;;
77821;SDS011;67012;53.712;10.728;2023-08-24T14:25:13;4.88;;;2.00;;
77821;SDS011;67012;53.712;10.728;2023-08-24T14:27:38;5.13;;;1.90;;
77821;SDS011;67012;53.712;10.728;2023-08-24T14:30:06;3.72;;;1.80;;
77821;SDS011;67012;53.712;10.728;2023-08-24T14:32:31;3.92;;;2.03;;
77821;SDS011;67012;53.712;10.728;2023-08-24T14:34:58;3.45;;;1.58;;
77821;SDS011;67012;53.712;10.728;2023-08-24T14:37:23;3.17;;;1.83;;
77821;SDS011;67012;53.712;10.728;2023-08-24T14:39:48;2.23;;;1.50;;
77821;SDS011;67012;53.712;10.728;2023-08-24T14:42:13;3.03;;;1.50;;
77821;SDS011;67012;53.712;10.728;2023-08-24T14:44:38;4.33;;;1.73;;
77821;SDS011;67012;53.712;10.728;2023-08-24T14:47:04;3.47;;;2.10;;
77821;SDS011;67012;53.712;10.728;2023-08-24T14:49:29;2.80;;;2.40;;
77821;SDS011;67012;53.712;10.728;2023-08-24T14:51:54;4.50;;;2.10;;
77821;SDS011;67012;53.712;10.728;2023-08-24T14:54:19;2.27;;;2.07;;
77821;SDS011;67012;53.712;10.728;2023-08-24T14:56:44;3.50;;;1.90;;
77821;SDS011;67012;53.712;10.728;2023-08-24T14:59:10;4.23;;;2.10;;
77821;SDS011;67012;53.712;10.728;2023-08-24T15:01:35;6.28;;;2.17;;
77821;SDS011;67012;53.712;10.728;2023-08-24T15:04:00;2.60;;;1.70;;
77821;SDS011;67012;53.712;10.728;2023-08-24T15:06:25;6.10;;;1.87;;
77821;SDS011;67012;53.712;10.728;2023-08-24T15:08:50;2.87;;;2.17;;
77821;SDS011;67012;53.712;10.728;2023-08-24T15:11:17;4.80;;;2.90;;
77821;SDS011;67012;53.712;10.728;2023-08-24T15:13:43;7.40;;;2.80;;
77821;SDS011;67012;53.712;10.728;2023-08-24T15:16:08;30.27;;;6.37;;
77821;SDS011;67012;53.712;10.728;2023-08-24T15:18:34;8.02;;;2.85;;
77821;SDS011;67012;53.712;10.728;2023-08-24T15:21:00;2.97;;;2.10;;
77821;SDS011;67012;53.712;10.728;2023-08-24T15:23:26;21.65;;;3.95;;
77821;SDS011;67012;53.712;10.728;2023-08-24T15:25:53;7.38;;;1.90;;
77821;SDS011;67012;53.712;10.728;2023-08-24T15:28:18;3.28;;;2.05;;
77821;SDS011;67012;53.712;10.728;2023-08-24T15:30:44;2.80;;;1.70;;
77821;SDS011;67012;53.712;10.728;2023-08-24T15:33:09;3.63;;;2.57;;
77821;SDS011;67012;53.712;10.728;2023-08-24T15:35:34;3.37;;;1.70;;
77821;SDS011;67012;53.712;10.728;2023-08-24T15:37:59;3.20;;;1.88;;
77821;SDS011;67012;53.712;10.728;2023-08-24T15:40:27;6.97;;;2.43;;
77821;SDS011;67012;53.712;10.728;2023-08-24T15:42:54;3.10;;;1.52;;
77821;SDS011;67012;53.712;10.728;2023-08-24T15:45:19;5.07;;;1.87;;
77821;SDS011;67012;53.712;10.728;2023-08-24T15:47:44;3.77;;;1.87;;
77821;SDS011;67012;53.712;10.728;2023-08-24T15:50:10;3.23;;;2.00;;
77821;SDS011;67012;53.712;10.728;2023-08-24T15:52:35;2.13;;;1.73;;
77821;SDS011;67012;53.712;10.728;2023-08-24T15:55:00;4.37;;;1.70;;
77821;SDS011;67012;53.712;10.728;2023-08-24T15:57:25;2.93;;;1.50;;
77821;SDS011;67012;53.712;10.728;2023-08-24T15:59:50;4.37;;;1.73;;
77821;SDS011;67012;53.712;10.728;2023-08-24T16:02:16;3.73;;;2.20;;
77821;SDS011;67012;53.712;10.728;2023-08-24T16:04:41;2.87;;;2.10;;
77821;SDS011;67012;53.712;10.728;2023-08-24T16:07:06;3.83;;;2.27;;
77821;SDS011;67012;53.712;10.728;2023-08-24T16:09:31;4.20;;;2.07;;
77821;SDS011;67012;53.712;10.728;2023-08-24T16:11:56;4.17;;;2.00;;
77821;SDS011;67012;53.712;10.728;2023-08-24T16:14:22;2.17;;;1.83;;
77821;SDS011;67012;53.712;10.728;2023-08-24T16:16:47;2.27;;;2.07;;
77821;SDS011;67012;53.712;10.728;2023-08-24T16:19:12;2.37;;;1.90;;
77821;SDS011;67012;53.712;10.728;2023-08-24T16:21:37;3.70;;;1.90;;
77821;SDS011;67012;53.712;10.728;2023-08-24T16:24:02;3.13;;;2.00;;
77821;SDS011;67012;53.712;10.728;2023-08-24T16:26:28;2.27;;;2.00;;
77821;SDS011;67012;53.712;10.728;2023-08-24T16:28:53;2.53;;;2.13;;
77821;SDS011;67012;53.712;10.728;2023-08-24T16:31:18;5.78;;;2.30;;
77821;SDS011;67012;53.712;10.728;2023-08-24T16:33:44;3.27;;;2.10;;
77821;SDS011;67012;53.712;10.728;2023-08-24T16:36:09;5.13;;;2.10;;
77821;SDS011;67012;53.712;10.728;2023-08-24T16:38:34;3.43;;;2.00;;
77821;SDS011;67012;53.712;10.728;2023-08-24T16:41:00;2.10;;;1.90;;
77821;SDS011;67012;53.712;10.728;2023-08-24T16:43:25;4.38;;;1.88;;
77821;SDS011;67012;53.712;10.728;2023-08-24T16:45:50;2.97;;;2.03;;
77821;SDS011;67012;53.712;10.728;2023-08-24T16:48:16;2.55;;;1.65;;
77821;SDS011;67012;53.712;10.728;2023-08-24T16:50:44;2.13;;;1.90;;
77821;SDS011;67012;53.712;10.728;2023-08-24T16:53:09;2.13;;;1.90;;
77821;SDS011;67012;53.712;10.728;2023-08-24T16:55:34;3.63;;;2.23;;
77821;SDS011;67012;53.712;10.728;2023-08-24T16:58:00;4.75;;;2.33;;
77821;SDS011;67012;53.712;10.728;2023-08-24T17:00:26;3.83;;;1.95;;
77821;SDS011;67012;53.712;10.728;2023-08-24T17:02:51;5.63;;;2.20;;
77821;SDS011;67012;53.712;10.728;2023-08-24T17:05:16;3.88;;;1.85;;
77821;SDS011;67012;53.712;10.728;2023-08-24T17:07:42;2.03;;;1.85;;
77821;SDS011;67012;53.712;10.728;2023-08-24T17:10:25;2.35;;;2.03;;
77821;SDS011;67012;53.712;10.728;2023-08-24T17:12:50;2.33;;;1.80;;
77821;SDS011;67012;53.712;10.728;2023-08-24T17:15:15;2.33;;;2.13;;
77821;SDS011;67012;53.712;10.728;2023-08-24T17:17:41;4.20;;;1.87;;
77821;SDS011;67012;53.712;10.728;2023-08-24T17:20:06;2.53;;;1.70;;
77821;SDS011;67012;53.712;10.728;2023-08-24T17:22:31;3.05;;;2.00;;
77821;SDS011;67012;53.712;10.728;2023-08-24T17:24:56;2.97;;;1.80;;
77821;SDS011;67012;53.712;10.728;2023-08-24T17:27:23;3.58;;;1.90;;
77821;SDS011;67012;53.712;10.728;2023-08-24T17:29:48;3.23;;;1.87;;
77821;SDS011;67012;53.712;10.728;2023-08-24T17:32:14;2.45;;;2.25;;
77821;SDS011;67012;53.712;10.728;2023-08-24T17:34:39;6.32;;;2.45;;
77821;SDS011;67012;53.712;10.728;2023-08-24T17:37:04;2.70;;;2.17;;
77821;SDS011;67012;53.712;10.728;2023-08-24T17:39:30;2.28;;;1.52;;
77821;SDS011;67012;53.712;10.728;2023-08-24T17:41:55;3.43;;;3.13;;
77821;SDS011;67012;53.712;10.728;2023-08-24T17:44:20;3.93;;;2.33;;
77821;SDS011;67012;53.712;10.728;2023-08-24T17:46:46;4.07;;;2.83;;
77821;SDS011;67012;53.712;10.728;2023-08-24T17:49:11;4.93;;;2.00;;
77821;SDS011;67012;53.712;10.728;2023-08-24T17:51:37;2.67;;;1.63;;
77821;SDS011;67012;53.712;10.728;2023-08-24T17:54:02;3.40;;;2.00;;
77821;SDS011;67012;53.712;10.728;2023-08-24T17:56:27;4.72;;;2.00;;
77821;SDS011;67012;53.712;10.728;2023-08-24T17:58:53;2.55;;;1.75;;
77821;SDS011;67012;53.712;10.728;2023-08-24T18:01:19;5.43;;;1.77;;
77821;SDS011;67012;53.712;10.728;2023-08-24T18:03:44;3.60;;;1.40;;
77821;SDS011;67012;53.712;10.728;2023-08-24T18:06:09;1.50;;;1.33;;
77821;SDS011;67012;53.712;10.728;2023-08-24T18:08:34;3.93;;;1.90;;
77821;SDS011;67012;53.712;10.728;2023-08-24T18:11:03;4.03;;;1.53;;
77821;SDS011;67012;53.712;10.728;2023-08-24T18:13:28;1.70;;;1.13;;
77821;SDS011;67012;53.712;10.728;2023-08-24T18:15:53;2.00;;;1.33;;
77821;SDS011;67012;53.712;10.728;2023-08-24T18:18:19;2.53;;;1.30;;
77821;SDS011;67012;53.712;10.728;2023-08-24T18:20:44;2.27;;;1.20;;
77821;SDS011;67012;53.712;10.728;2023-08-24T18:23:10;1.40;;;1.02;;
77821;SDS011;67012;53.712;10.728;2023-08-24T18:25:35;2.07;;;1.20;;
77821;SDS011;67012;53.712;10.728;2023-08-24T18:28:00;2.90;;;1.13;;
77821;SDS011;67012;53.712;10.728;2023-08-24T18:30:26;3.13;;;1.00;;
77821;SDS011;67012;53.712;10.728;2023-08-24T18:32:51;4.10;;;1.20;;
77821;SDS011;67012;53.712;10.728;2023-08-24T18:35:16;4.40;;;1.53;;
77821;SDS011;67012;53.712;10.728;2023-08-24T18:37:41;2.37;;;1.20;;
77821;SDS011;67012;53.712;10.728;2023-08-24T18:40:07;2.17;;;1.27;;
77821;SDS011;67012;53.712;10.728;2023-08-24T18:42:32;2.10;;;1.02;;
77821;SDS011;67012;53.712;10.728;2023-08-24T18:44:58;1.23;;;1.00;;
77821;SDS011;67012;53.712;10.728;2023-08-24T18:47:23;1.88;;;1.00;;
77821;SDS011;67012;53.712;10.728;2023-08-24T18:49:48;3.33;;;1.50;;
77821;SDS011;67012;53.712;10.728;2023-08-24T18:52:13;4.27;;;1.30;;
77821;SDS011;67012;53.712;10.728;2023-08-24T18:54:39;1.90;;;1.43;;
77821;SDS011;67012;53.712;10.728;2023-08-24T18:57:04;3.97;;;1.10;;
77821;SDS011;67012;53.712;10.728;2023-08-24T18:59:29;2.80;;;1.20;;
77821;SDS011;67012;53.712;10.728;2023-08-24T19:01:54;3.93;;;1.50;;
77821;SDS011;67012;53.712;10.728;2023-08-24T19:04:19;2.20;;;1.00;;
77821;SDS011;67012;53.712;10.728;2023-08-24T19:06:45;2.93;;;1.00;;
77821;SDS011;67012;53.712;10.728;2023-08-24T19:09:10;3.33;;;1.13;;
77821;SDS011;67012;53.712;10.728;2023-08-24T19:11:35;1.80;;;1.00;;
77821;SDS011;67012;53.712;10.728;2023-08-24T19:14:00;1.73;;;1.03;;
77821;SDS011;67012;53.712;10.728;2023-08-24T19:16:25;4.00;;;1.00;;
77821;SDS011;67012;53.712;10.728;2023-08-24T19:18:51;2.07;;;0.90;;
77821;SDS011;67012;53.712;10.728;2023-08-24T19:21:16;1.60;;;1.10;;
77821;SDS011;67012;53.712;10.728;2023-08-24T19:23:42;2.17;;;1.40;;
77821;SDS011;67012;53.712;10.728;2023-08-24T19:26:07;3.23;;;1.43;;
77821;SDS011;67012;53.712;10.728;2023-08-24T19:28:32;3.47;;;1.20;;
77821;SDS011;67012;53.712;10.728;2023-08-24T19:30:58;5.00;;;1.10;;
77821;SDS011;67012;53.712;10.728;2023-08-24T19:33:23;3.15;;;0.98;;
77821;SDS011;67012;53.712;10.728;2023-08-24T19:35:48;2.60;;;1.20;;
77821;SDS011;67012;53.712;10.728;2023-08-24T19:38:14;3.25;;;1.08;;
77821;SDS011;67012;53.712;10.728;2023-08-24T19:40:39;2.72;;;1.20;;
77821;SDS011;67012;53.712;10.728;2023-08-24T19:43:04;2.77;;;1.20;;
77821;SDS011;67012;53.712;10.728;2023-08-24T19:45:31;4.43;;;1.25;;
77821;SDS011;67012;53.712;10.728;2023-08-24T19:47:58;2.25;;;1.10;;
77821;SDS011;67012;53.712;10.728;2023-08-24T19:50:24;1.20;;;1.10;;
77821;SDS011;67012;53.712;10.728;2023-08-24T19:52:49;3.03;;;1.20;;
77821;SDS011;67012;53.712;10.728;2023-08-24T19:55:14;1.40;;;1.20;;
77821;SDS011;67012;53.712;10.728;2023-08-24T19:57:39;1.60;;;1.50;;
77821;SDS011;67012;53.712;10.728;2023-08-24T20:00:05;3.83;;;1.20;;
77821;SDS011;67012;53.712;10.728;2023-08-24T20:02:31;2.40;;;1.38;;
77821;SDS011;67012;53.712;10.728;2023-08-24T20:04:58;4.45;;;1.42;;